EW7639 Weather Reports


Display with metric or nautical units.
time (UTC)temp
F
wind
direction
speed
MPH
gust
MPH
rain 1hr
in
rain 24hr
in
rain mn
in
humidity
%
barometer
mb
20181216220133 40 87 4.0 10.0 0.10 0.22 0.22 89 1009.9
20181216214717 40 5 2.0 9.0 0.06 0.18 0.18 89 1010.1
20181216213133 40 59 3.0 9.0 0.02 0.14 0.14 89 1010.1
20181216211636 40 75 3.0 12.0 0.01 0.13 0.13 89 1010.1
20181216210143 41 136 4.0 10.0 0.00 0.12 0.12 88 1010.7
20181216204629 41 48 5.0 11.0 0.00 0.12 0.12 86 1010.8
20181216203134 41 110 4.0 11.0 0.00 0.12 0.12 85 1010.9
20181216201615 42 63 4.0 18.0 0.00 0.12 0.12 85 1010.9
20181216200122 42 54 4.0 15.0 0.00 0.12 0.12 84 1010.9
20181216194651 42 351 3.0 18.0 0.00 0.12 0.12 84 1011.1
20181216193147 42 72 5.0 16.0 0.00 0.12 0.12 85 1011.3
20181216191629 42 111 3.0 11.0 0.00 0.12 0.12 85 1011.4
20181216190120 42 93 4.0 14.0 0.00 0.12 0.12 86 1011.2
20181216184637 42 65 5.0 11.0 0.00 0.12 0.12 87 1011.8
20181216183108 42 51 3.0 11.0 0.00 0.12 0.12 87 1012.1
20181216181549 42 80 6.0 11.0 0.00 0.12 0.12 87 1012.6
20181216180047 42 63 4.0 10.0 0.00 0.12 0.12 87 1013.0
20181216174605 42 355 8.0 17.0 0.00 0.12 0.12 88 1012.4
20181216173040 41 51 6.0 19.0 0.00 0.12 0.12 88 1013.1
20181216171604 41 78 5.0 13.0 0.00 0.12 0.12 87 1014.2
20181216170050 41 68 6.0 17.0 0.00 0.12 0.12 87 1014.6
20181216164556 41 44 6.0 13.0 0.00 0.12 0.12 87 1015.0
20181216163026 41 48 4.0 19.0 0.00 0.12 0.12 87 1015.5
20181216161634 41 49 7.0 13.0 0.00 0.12 0.12 88 1015.8
20181216160025 41 62 4.0 14.0 0.01 0.12 0.12 88 1016.3
20181216154535 41 69 4.0 13.0 0.01 0.14 0.12 89 1016.5
20181216153016 40 103 2.0 11.0 0.02 0.14 0.12 89 1017.1
20181216151509 40 96 5.0 13.0 0.01 0.13 0.11 89 1017.6
20181216150009 40 74 5.0 13.0 0.02 0.13 0.11 89 1018.2
20181216144501 40 62 4.0 11.0 0.02 0.13 0.11 89 1018.4
20181216143226 40 81 5.0 14.0 0.02 0.12 0.10 89 1018.5
20181216141714 40 103 3.0 9.0 0.05 0.12 0.10 89 1018.5
20181216140248 40 136 2.0 12.0 0.07 0.11 0.09 89 1018.7
20181216134646 39 132 3.0 10.0 0.08 0.12 0.09 89 1018.9
20181216133138 39 49 5.0 9.0 0.08 0.11 0.08 89 1018.6
20181216131631 39 105 3.0 9.0 0.05 0.08 0.05 89 1018.9
20181216130151 40 71 1.0 6.0 0.02 0.05 0.02 88 1019.4
20181216124606 40 64 3.0 6.0 0.01 0.04 0.01 86 1019.4
20181216123126 40 51 0.0 5.0 0.00 0.03 0.00 85 1019.4
20181216121702 40 26 2.0 6.0 0.00 0.03 0.00 84 1019.6
20181216120126 40 86 2.0 6.0 0.00 0.03 0.00 84 1019.7
20181216114648 40 97 2.0 8.0 0.00 0.03 0.00 84 1019.7
20181216113225 40 12 1.0 8.0 0.00 0.03 0.00 83 1020.0
20181216111615 40 84 3.0 11.0 0.00 0.03 0.00 82 1019.9
20181216110146 40 92 5.0 11.0 0.00 0.03 0.00 81 1019.8
20181216104604 40 355 3.0 7.0 0.00 0.03 0.00 81 1020.1
20181216103118 40 78 0.0 7.0 0.00 0.03 0.00 81 1020.5
20181216101626 40 88 2.0 6.0 0.00 0.03 0.00 81 1020.6
20181216100115 40 79 3.0 9.0 0.00 0.03 0.00 81 1019.9
20181216094540 40 40 2.0 5.0 0.00 0.03 0.00 81 1020.0
20181216093103 40 50 2.0 5.0 0.00 0.03 0.00 81 1020.4
20181216091555 40 5 3.0 8.0 0.00 0.03 0.00 82 1019.8
20181216090049 40 9 1.0 9.0 0.00 0.03 0.00 82 1019.6
20181216084535 40 60 0.0 5.0 0.00 0.03 0.00 82 1019.3
20181216083046 40 350 3.0 8.0 0.00 0.03 0.00 82 1018.8
20181216081612 40 69 4.0 9.0 0.00 0.03 0.00 82 1019.1
20181216080042 40 95 2.0 8.0 0.00 0.03 0.00 82 1019.2
20181216074550 40 94 4.0 13.0 0.00 0.04 0.00 81 1019.4
20181216073054 40 95 3.0 7.0 0.00 0.04 0.00 81 1019.7
20181216071531 40 49 2.0 8.0 0.00 0.04 0.00 80 1019.9
20181216070045 41 67 0.0 9.0 0.00 0.04 0.00 80 1020.4
20181216064528 41 119 3.0 8.0 0.00 0.04 0.00 80 1020.1
20181216063021 41 97 3.0 7.0 0.00 0.04 0.00 80 1020.6
20181216061557 41 59 2.0 6.0 0.00 0.04 0.00 79 1021.0
20181216060016 41 327 2.0 14.0 0.00 0.04 0.00 79 1020.7
20181216054519 41 51 2.0 9.0 0.00 0.04 0.00 79 1020.7
20181216053021 41 137 2.0 14.0 0.00 0.04 0.00 79 1019.9
20181216051507 41 85 3.0 13.0 0.00 0.04 0.00 79 1020.3
20181216050008 41 17 5.0 11.0 0.00 0.04 0.00 80 1020.2
20181216044616 41 28 3.0 8.0 0.00 0.04 0.04 81 1020.6
20181216043132 42 80 3.0 8.0 0.00 0.04 0.04 81 1021.1
20181216041718 42 349 2.0 9.0 0.00 0.04 0.04 82 1021.4
20181216040237 42 15 2.0 8.0 0.00 0.04 0.04 82 1022.0
20181216034704 42 11 3.0 6.0 0.00 0.04 0.04 83 1022.2
20181216033136 42 360 3.0 8.0 0.00 0.04 0.04 84 1022.1
20181216031612 42 67 1.0 5.0 0.00 0.04 0.04 84 1022.4
20181216030158 42 16 3.0 7.0 0.00 0.04 0.04 84 1022.1
20181216024632 42 117 0.0 5.0 0.00 0.04 0.04 84 1021.9
20181216023244 42 63 1.0 8.0 0.00 0.04 0.04 84 1021.7
20181216021612 43 44 3.0 7.0 0.00 0.04 0.04 84 1022.0
20181216020137 43 80 2.0 7.0 0.00 0.04 0.04 84 1021.4
20181216014628 43 24 1.0 7.0 0.00 0.04 0.04 82 1021.2
20181216013120 44 78 3.0 8.0 0.00 0.04 0.04 81 1021.3
20181216011627 44 355 3.0 7.0 0.00 0.04 0.04 80 1021.8
20181216010131 45 68 3.0 14.0 0.00 0.04 0.04 79 1021.9
20181216004612 46 56 3.0 8.0 0.00 0.04 0.04 83 1021.5
20181216003205 46 77 3.0 7.0 0.00 0.04 0.04 84 1021.0
20181216001618 47 348 1.0 8.0 0.00 0.04 0.04 84 1020.7
20181216000047 47 5 3.0 9.0 0.00 0.04 0.04 85 1020.4
20181215234608 48 55 2.0 10.0 0.00 0.04 0.04 84 1020.4
20181215233109 47 63 1.0 11.0 0.00 0.04 0.04 86 1019.5
20181215231552 48 360 1.0 6.0 0.00 0.04 0.04 86 1019.2
20181215230106 48 19 3.0 7.0 0.00 0.04 0.04 87 1018.8
20181215224628 48 10 2.0 6.0 0.00 0.04 0.04 87 1018.6
20181215223100 48 43 3.0 10.0 0.00 0.04 0.04 88 1018.7
20181215221604 48 70 3.0 7.0 0.00 0.04 0.04 88 1019.1